Capitol Logistics 225


PANC
Ted Stevens Anchorage International Airport
Anchorage, Alaska, US
KLAX
Los Angeles International Airport
Los Angeles, California, US

Route Details

Aircraft Information
Primary: Boeing 767-300BDSF
Backup: Not Available
Route Data
Distance: 2090nm
Sched. Duration: 4h 25m
Avg. Duration: 4h 83m (+58m)
Times Flown: 13
Recm'd Route: MDO B453 KURTT B453 KYLLE B453 BOXER ENI OAK TILLT HUULL HUULL2
Planned Altitude: 31,000ft
Origin Wx: PANC 170853Z 36003KT 10SM FEW050 BKN085 BKN130 01/M05 A2930 RMK AO2 SLP924 T00061050 400111067 53016
Dest. Wx: KLAX 170853Z 00000KT 10SM CLR 17/02 A2998 RMK AO2 SLP149 T01720022 55002
Notes:

Financial History
Total Freight: 1,604,234lbs
Average Load: 123,403lbs/flt
Fuel Used: 850,797lbs
Avg. Fuel Used: 65,446lbs/flt
Fuel Expense: $1,039,915
Avg. Fuel Expense: $79,993
Avg. Fuel Cost: $1.22/lbs
Total Gross Income: $3,026,418
Pilot Pay: $2,407
Total Expenses: $323,290
Total Revenue: $1,649,123
Average Revenue: $232,801.35